Chiyomaru No.28 — 28CHIYO — position and weather

sailwx.info

Track history (hours):
 
Tides and Currents Weather Stations Pressure Air Temp Water Temp Dewpoint Dewpoint Depression Visibility Wind Speed Wind Dir Waves Ship Positions

Chiyomaru No.28

Last reported at 2017-Nov-20 00:28 UTC. Time now 2017-Nov-22 10:57 UTC.
Position N 34°39' E 135°17'.

Length 18 m; draft 5 m.

Type: Tug. MMSI: 431000432.

Date/timePositionNaut miles runAvg speedWind from/ knotsBaromVisibWave heightAir tempDewpointWater temp
2017-Nov-20 00:28N 34°39' E 135°17'0 0.0
2017-Nov-19 23:52N 34°39' E 135°17'0 0.0
2017-Nov-19 23:28N 34°39' E 135°17'1 1.9
2017-Nov-19 23:00N 34°39' E 135°18'3 5.6
2017-Nov-19 22:28N 34°41' E 135°21'0 0.4
2017-Nov-19 22:00N 34°41' E 135°21'5 8.9
2017-Nov-19 21:29N 34°39' E 135°26'2 0.0
2017-Nov-17 23:20N 34°39' E 135°28'0 0.0
2017-Nov-17 22:56N 34°39' E 135°28'1 0.1
2017-Nov-17 08:36N 34°39' E 135°27'2 8.1
2017-Nov-17 08:21N 34°39' E 135°24'3 8.3
2017-Nov-17 07:59N 34°41' E 135°21'0 0.0
2017-Nov-16 22:47N 34°41' E 135°22'1 1.3
2017-Nov-16 22:14N 34°41' E 135°21'0 0.3
2017-Nov-16 22:00N 34°41' E 135°21'5 8.7
2017-Nov-16 21:24N 34°39' E 135°27'1 2.5
2017-Nov-16 20:58N 34°39' E 135°28'1 0.1
2017-Nov-16 07:46N 34°39' E 135°26'1 0.3
2017-Nov-16 02:08N 34°39' E 135°25'2 8.7
2017-Nov-16 01:54N 34°40' E 135°23'2 2.5
2017-Nov-16 01:14N 34°40' E 135°21'2 7.4
2017-Nov-16 00:59N 34°40' E 135°18'1 1.8
2017-Nov-16 00:16N 34°39' E 135°17'0 0.0
2017-Nov-15 23:46N 34°39' E 135°17'0 0.0
2017-Nov-15 23:28N 34°39' E 135°17'1 2.5
2017-Nov-15 22:58N 34°39' E 135°18'3 6.1
2017-Nov-15 22:29N 34°41' E 135°22'1 1.1
2017-Nov-15 22:00N 34°41' E 135°21'6 7.3
2017-Nov-15 21:11N 34°39' E 135°28'0 0.0
2017-Nov-15 20:58N 34°39' E 135°28'1 0.1
2017-Nov-15 07:51N 34°39' E 135°26'3 8.8
2017-Nov-15 07:30N 34°40' E 135°23'1 0.1
2017-Nov-14 22:59N 34°41' E 135°23'2 2.4
2017-Nov-14 22:20N 34°41' E 135°21'1 2.0
2017-Nov-14 22:00N 34°41' E 135°21'5 8.5
2017-Nov-14 21:28N 34°39' E 135°26'0 0.0
2017-Nov-14 07:44N 34°39' E 135°26'2 8.5
2017-Nov-14 07:30N 34°39' E 135°24'2 0.4
2017-Nov-14 01:47N 34°41' E 135°22'1 4.4
2017-Nov-14 01:29N 34°41' E 135°21'2 3.2
2017-Nov-14 01:00N 34°40' E 135°19'2 3.4
2017-Nov-14 00:25N 34°39' E 135°17'0 0.0
2017-Nov-13 23:55N 34°39' E 135°17'0 0.0
2017-Nov-13 23:25N 34°39' E 135°17'1 1.3
2017-Nov-13 22:59N 34°39' E 135°18'4 6.7
2017-Nov-13 22:27N 34°41' E 135°22'0 0.9
2017-Nov-13 22:00N 34°41' E 135°21'1 0.0
2017-Nov-12 23:17N 34°41' E 135°22'0 0.4
2017-Nov-12 23:00N 34°41' E 135°23'2 2.2
2017-Nov-12 22:18N 34°41' E 135°21'0 0.5
2017-Nov-12 21:58N 34°41' E 135°21'4 9.1
2017-Nov-12 21:29N 34°39' E 135°26'2 3.7
2017-Nov-12 20:56N 34°39' E 135°28'  
2017-Nov-10 07:53N 34°39' E 135°28'4 8.1
2017-Nov-10 07:24N 34°40' E 135°23'1 0.1
2017-Nov-10 02:29N 34°40' E 135°24'0 0.3
2017-Nov-10 02:00N 34°40' E 135°24'3 5.5
2017-Nov-10 01:29N 34°41' E 135°21'1 2.6
2017-Nov-10 01:00N 34°40' E 135°20'3 5.1
2017-Nov-10 00:30N 34°39' E 135°17'  
Track history (hours):
 
Tides and Currents Weather Stations Pressure Air Temp Water Temp Dewpoint Dewpoint Depression Visibility Wind Speed Wind Dir Waves Ship Positions

Chiyomaru No.28

Last reported at 2017-Nov-20 00:28 UTC. Time now 2017-Nov-22 10:57 UTC.
Position N 34°39' E 135°17'.

Length 18 m; draft 5 m.

Type: Tug. MMSI: 431000432.

Date/timePositionNaut miles runAvg speedWind from/ knotsBaromVisibWave heightAir tempDewpointWater temp
2017-Nov-20 00:28N 34°39' E 135°17'0 0.0
2017-Nov-19 23:52N 34°39' E 135°17'0 0.0
2017-Nov-19 23:28N 34°39' E 135°17'1 1.9
2017-Nov-19 23:00N 34°39' E 135°18'3 5.6
2017-Nov-19 22:28N 34°41' E 135°21'0 0.4
2017-Nov-19 22:00N 34°41' E 135°21'5 8.9
2017-Nov-19 21:29N 34°39' E 135°26'2 0.0
2017-Nov-17 23:20N 34°39' E 135°28'0 0.0
2017-Nov-17 22:56N 34°39' E 135°28'1 0.1
2017-Nov-17 08:36N 34°39' E 135°27'2 8.1
2017-Nov-17 08:21N 34°39' E 135°24'3 8.3
2017-Nov-17 07:59N 34°41' E 135°21'0 0.0
2017-Nov-16 22:47N 34°41' E 135°22'1 1.3
2017-Nov-16 22:14N 34°41' E 135°21'0 0.3
2017-Nov-16 22:00N 34°41' E 135°21'5 8.7
2017-Nov-16 21:24N 34°39' E 135°27'1 2.5
2017-Nov-16 20:58N 34°39' E 135°28'1 0.1
2017-Nov-16 07:46N 34°39' E 135°26'1 0.3
2017-Nov-16 02:08N 34°39' E 135°25'2 8.7
2017-Nov-16 01:54N 34°40' E 135°23'2 2.5
2017-Nov-16 01:14N 34°40' E 135°21'2 7.4
2017-Nov-16 00:59N 34°40' E 135°18'1 1.8
2017-Nov-16 00:16N 34°39' E 135°17'0 0.0
2017-Nov-15 23:46N 34°39' E 135°17'0 0.0
2017-Nov-15 23:28N 34°39' E 135°17'1 2.5
2017-Nov-15 22:58N 34°39' E 135°18'3 6.1
2017-Nov-15 22:29N 34°41' E 135°22'1 1.1
2017-Nov-15 22:00N 34°41' E 135°21'6 7.3
2017-Nov-15 21:11N 34°39' E 135°28'0 0.0
2017-Nov-15 20:58N 34°39' E 135°28'1 0.1
2017-Nov-15 07:51N 34°39' E 135°26'3 8.8
2017-Nov-15 07:30N 34°40' E 135°23'1 0.1
2017-Nov-14 22:59N 34°41' E 135°23'2 2.4
2017-Nov-14 22:20N 34°41' E 135°21'1 2.0
2017-Nov-14 22:00N 34°41' E 135°21'5 8.5
2017-Nov-14 21:28N 34°39' E 135°26'0 0.0
2017-Nov-14 07:44N 34°39' E 135°26'2 8.5
2017-Nov-14 07:30N 34°39' E 135°24'2 0.4
2017-Nov-14 01:47N 34°41' E 135°22'1 4.4
2017-Nov-14 01:29N 34°41' E 135°21'2 3.2
2017-Nov-14 01:00N 34°40' E 135°19'2 3.4
2017-Nov-14 00:25N 34°39' E 135°17'0 0.0
2017-Nov-13 23:55N 34°39' E 135°17'0 0.0
2017-Nov-13 23:25N 34°39' E 135°17'1 1.3
2017-Nov-13 22:59N 34°39' E 135°18'4 6.7
2017-Nov-13 22:27N 34°41' E 135°22'0 0.9
2017-Nov-13 22:00N 34°41' E 135°21'1 0.0
2017-Nov-12 23:17N 34°41' E 135°22'0 0.4
2017-Nov-12 23:00N 34°41' E 135°23'2 2.2
2017-Nov-12 22:18N 34°41' E 135°21'0 0.5
2017-Nov-12 21:58N 34°41' E 135°21'4 9.1
2017-Nov-12 21:29N 34°39' E 135°26'2 3.7
2017-Nov-12 20:56N 34°39' E 135°28'  
2017-Nov-10 07:53N 34°39' E 135°28'4 8.1
2017-Nov-10 07:24N 34°40' E 135°23'1 0.1
2017-Nov-10 02:29N 34°40' E 135°24'0 0.3
2017-Nov-10 02:00N 34°40' E 135°24'3 5.5
2017-Nov-10 01:29N 34°41' E 135°21'1 2.6
2017-Nov-10 01:00N 34°40' E 135°20'3 5.1
2017-Nov-10 00:30N 34°39' E 135°17'  

Dump ship's entire track history